sensor_id;sensor_type;location;lat;lon;timestamp;P1;durP1;ratioP1;P2;durP2;ratioP2
1747;SDS011;871;47.034;15.394;2022-09-09T00:03:47;37.90;;;1.40;;
1747;SDS011;871;47.034;15.394;2022-09-09T00:06:20;39.43;;;1.40;;
1747;SDS011;871;47.034;15.394;2022-09-09T00:11:36;41.03;;;1.87;;
1747;SDS011;871;47.034;15.394;2022-09-09T00:14:07;37.77;;;1.40;;
1747;SDS011;871;47.034;15.394;2022-09-09T00:16:36;37.90;;;1.57;;
1747;SDS011;871;47.034;15.394;2022-09-09T00:21:33;38.70;;;1.40;;
1747;SDS011;871;47.034;15.394;2022-09-09T00:23:59;37.53;;;1.50;;
1747;SDS011;871;47.034;15.394;2022-09-09T00:26:44;38.10;;;1.50;;
1747;SDS011;871;47.034;15.394;2022-09-09T00:29:31;38.57;;;1.57;;
1747;SDS011;871;47.034;15.394;2022-09-09T00:32:07;37.90;;;1.43;;
1747;SDS011;871;47.034;15.394;2022-09-09T00:34:34;37.80;;;1.47;;
1747;SDS011;871;47.034;15.394;2022-09-09T00:37:03;38.00;;;1.37;;
1747;SDS011;871;47.034;15.394;2022-09-09T00:39:32;40.57;;;1.70;;
1747;SDS011;871;47.034;15.394;2022-09-09T00:42:13;37.90;;;1.70;;
1747;SDS011;871;47.034;15.394;2022-09-09T00:50:17;38.13;;;1.83;;
1747;SDS011;871;47.034;15.394;2022-09-09T00:53:02;39.00;;;1.87;;
1747;SDS011;871;47.034;15.394;2022-09-09T00:58:00;37.67;;;1.60;;
1747;SDS011;871;47.034;15.394;2022-09-09T01:00:27;37.97;;;1.80;;
1747;SDS011;871;47.034;15.394;2022-09-09T01:07:50;37.17;;;2.00;;
1747;SDS011;871;47.034;15.394;2022-09-09T01:13:02;37.30;;;1.90;;
1747;SDS011;871;47.034;15.394;2022-09-09T01:15:30;37.03;;;1.50;;
1747;SDS011;871;47.034;15.394;2022-09-09T01:18:10;37.00;;;1.60;;
1747;SDS011;871;47.034;15.394;2022-09-09T01:28:16;39.80;;;2.20;;
1747;SDS011;871;47.034;15.394;2022-09-09T01:30:44;36.80;;;1.77;;
1747;SDS011;871;47.034;15.394;2022-09-09T01:33:14;37.87;;;2.27;;
1747;SDS011;871;47.034;15.394;2022-09-09T01:38:26;39.33;;;1.93;;
1747;SDS011;871;47.034;15.394;2022-09-09T01:40:53;39.23;;;1.90;;
1747;SDS011;871;47.034;15.394;2022-09-09T01:43:20;37.10;;;1.77;;
1747;SDS011;871;47.034;15.394;2022-09-09T01:45:47;42.00;;;2.97;;
1747;SDS011;871;47.034;15.394;2022-09-09T01:48:15;36.67;;;1.77;;
1747;SDS011;871;47.034;15.394;2022-09-09T01:50:43;40.87;;;1.90;;
1747;SDS011;871;47.034;15.394;2022-09-09T01:53:09;38.03;;;2.10;;
1747;SDS011;871;47.034;15.394;2022-09-09T01:55:40;36.77;;;2.20;;
1747;SDS011;871;47.034;15.394;2022-09-09T02:03:31;36.40;;;2.00;;
1747;SDS011;871;47.034;15.394;2022-09-09T02:11:04;36.83;;;2.20;;
1747;SDS011;871;47.034;15.394;2022-09-09T02:13:32;36.30;;;2.00;;
1747;SDS011;871;47.034;15.394;2022-09-09T02:19:12;49.33;;;2.63;;
1747;SDS011;871;47.034;15.394;2022-09-09T02:21:18;38.40;;;2.17;;
1747;SDS011;871;47.034;15.394;2022-09-09T02:23:44;37.00;;;2.30;;
1747;SDS011;871;47.034;15.394;2022-09-09T02:26:12;36.90;;;2.17;;
1747;SDS011;871;47.034;15.394;2022-09-09T02:28:45;40.17;;;3.50;;
1747;SDS011;871;47.034;15.394;2022-09-09T02:31:13;38.30;;;2.23;;
1747;SDS011;871;47.034;15.394;2022-09-09T02:33:42;36.83;;;2.00;;
1747;SDS011;871;47.034;15.394;2022-09-09T02:36:09;41.70;;;2.67;;
1747;SDS011;871;47.034;15.394;2022-09-09T02:38:40;37.60;;;2.37;;
1747;SDS011;871;47.034;15.394;2022-09-09T02:41:07;37.70;;;2.40;;
1747;SDS011;871;47.034;15.394;2022-09-09T02:43:33;38.23;;;2.57;;
1747;SDS011;871;47.034;15.394;2022-09-09T02:48:37;37.07;;;2.30;;
1747;SDS011;871;47.034;15.394;2022-09-09T02:51:10;39.80;;;2.93;;
1747;SDS011;871;47.034;15.394;2022-09-09T02:53:43;38.50;;;2.40;;
1747;SDS011;871;47.034;15.394;2022-09-09T02:56:18;36.90;;;2.20;;
1747;SDS011;871;47.034;15.394;2022-09-09T02:58:46;36.50;;;2.03;;
1747;SDS011;871;47.034;15.394;2022-09-09T03:01:13;37.70;;;2.40;;
1747;SDS011;871;47.034;15.394;2022-09-09T03:03:39;38.87;;;2.80;;
1747;SDS011;871;47.034;15.394;2022-09-09T03:06:06;39.30;;;2.73;;
1747;SDS011;871;47.034;15.394;2022-09-09T03:08:32;37.20;;;2.40;;
1747;SDS011;871;47.034;15.394;2022-09-09T03:10:58;39.00;;;2.53;;
1747;SDS011;871;47.034;15.394;2022-09-09T03:13:27;39.00;;;2.80;;
1747;SDS011;871;47.034;15.394;2022-09-09T03:15:55;43.10;;;3.20;;
1747;SDS011;871;47.034;15.394;2022-09-09T03:18:22;38.80;;;2.80;;
1747;SDS011;871;47.034;15.394;2022-09-09T03:20:48;38.53;;;3.07;;
1747;SDS011;871;47.034;15.394;2022-09-09T03:23:14;37.37;;;2.67;;
1747;SDS011;871;47.034;15.394;2022-09-09T03:25:48;42.57;;;3.27;;
1747;SDS011;871;47.034;15.394;2022-09-09T03:28:16;43.30;;;3.10;;
1747;SDS011;871;47.034;15.394;2022-09-09T03:30:42;36.60;;;2.50;;
1747;SDS011;871;47.034;15.394;2022-09-09T03:33:08;39.60;;;2.83;;
1747;SDS011;871;47.034;15.394;2022-09-09T03:35:34;43.20;;;2.80;;
1747;SDS011;871;47.034;15.394;2022-09-09T03:38:01;41.77;;;2.80;;
1747;SDS011;871;47.034;15.394;2022-09-09T03:40:27;40.17;;;2.70;;
1747;SDS011;871;47.034;15.394;2022-09-09T03:42:53;38.67;;;2.67;;
1747;SDS011;871;47.034;15.394;2022-09-09T03:45:19;39.70;;;3.10;;
1747;SDS011;871;47.034;15.394;2022-09-09T03:47:45;38.07;;;2.73;;
1747;SDS011;871;47.034;15.394;2022-09-09T03:50:12;39.47;;;2.53;;
1747;SDS011;871;47.034;15.394;2022-09-09T03:52:39;37.23;;;2.10;;
1747;SDS011;871;47.034;15.394;2022-09-09T03:55:07;42.93;;;3.23;;
1747;SDS011;871;47.034;15.394;2022-09-09T03:57:34;37.17;;;2.33;;
1747;SDS011;871;47.034;15.394;2022-09-09T04:00:04;37.03;;;2.70;;
1747;SDS011;871;47.034;15.394;2022-09-09T04:02:31;38.27;;;2.50;;
1747;SDS011;871;47.034;15.394;2022-09-09T04:04:58;37.30;;;2.63;;
1747;SDS011;871;47.034;15.394;2022-09-09T04:07:24;41.50;;;3.03;;
1747;SDS011;871;47.034;15.394;2022-09-09T04:09:52;38.83;;;2.77;;
1747;SDS011;871;47.034;15.394;2022-09-09T04:12:20;38.00;;;2.60;;
1747;SDS011;871;47.034;15.394;2022-09-09T04:14:47;38.50;;;3.50;;
1747;SDS011;871;47.034;15.394;2022-09-09T04:17:14;40.27;;;3.23;;
1747;SDS011;871;47.034;15.394;2022-09-09T04:19:40;37.77;;;3.27;;
1747;SDS011;871;47.034;15.394;2022-09-09T04:22:07;45.50;;;4.40;;
1747;SDS011;871;47.034;15.394;2022-09-09T04:24:33;40.80;;;3.67;;
1747;SDS011;871;47.034;15.394;2022-09-09T04:27:00;36.87;;;2.60;;
1747;SDS011;871;47.034;15.394;2022-09-09T04:29:26;38.63;;;4.00;;
1747;SDS011;871;47.034;15.394;2022-09-09T04:31:52;38.20;;;3.53;;
1747;SDS011;871;47.034;15.394;2022-09-09T04:34:19;38.60;;;2.97;;
1747;SDS011;871;47.034;15.394;2022-09-09T04:36:45;39.70;;;3.57;;
1747;SDS011;871;47.034;15.394;2022-09-09T04:39:13;38.60;;;3.30;;
1747;SDS011;871;47.034;15.394;2022-09-09T04:41:39;39.80;;;3.10;;
1747;SDS011;871;47.034;15.394;2022-09-09T04:44:05;37.93;;;3.43;;
1747;SDS011;871;47.034;15.394;2022-09-09T04:46:32;41.47;;;3.43;;
1747;SDS011;871;47.034;15.394;2022-09-09T04:48:59;44.33;;;3.40;;
1747;SDS011;871;47.034;15.394;2022-09-09T04:51:25;45.03;;;3.10;;
1747;SDS011;871;47.034;15.394;2022-09-09T04:53:51;39.10;;;3.57;;
1747;SDS011;871;47.034;15.394;2022-09-09T04:56:20;38.90;;;3.60;;
1747;SDS011;871;47.034;15.394;2022-09-09T04:58:46;37.40;;;3.30;;
1747;SDS011;871;47.034;15.394;2022-09-09T05:01:13;37.37;;;3.47;;
1747;SDS011;871;47.034;15.394;2022-09-09T05:03:39;39.50;;;3.57;;
1747;SDS011;871;47.034;15.394;2022-09-09T05:06:10;40.83;;;3.57;;
1747;SDS011;871;47.034;15.394;2022-09-09T05:08:36;37.10;;;2.90;;
1747;SDS011;871;47.034;15.394;2022-09-09T05:11:03;39.43;;;4.13;;
1747;SDS011;871;47.034;15.394;2022-09-09T05:13:29;39.10;;;3.20;;
1747;SDS011;871;47.034;15.394;2022-09-09T05:15:57;39.00;;;3.57;;
1747;SDS011;871;47.034;15.394;2022-09-09T05:18:23;39.50;;;3.30;;
1747;SDS011;871;47.034;15.394;2022-09-09T05:20:49;38.53;;;3.43;;
1747;SDS011;871;47.034;15.394;2022-09-09T05:23:16;38.50;;;3.40;;
1747;SDS011;871;47.034;15.394;2022-09-09T05:25:42;39.07;;;3.17;;
1747;SDS011;871;47.034;15.394;2022-09-09T05:28:08;38.90;;;3.43;;
1747;SDS011;871;47.034;15.394;2022-09-09T05:30:37;41.77;;;3.53;;
1747;SDS011;871;47.034;15.394;2022-09-09T05:33:03;38.30;;;3.30;;
1747;SDS011;871;47.034;15.394;2022-09-09T05:35:31;41.03;;;3.90;;
1747;SDS011;871;47.034;15.394;2022-09-09T05:38:01;40.70;;;4.93;;
1747;SDS011;871;47.034;15.394;2022-09-09T05:40:27;37.30;;;3.00;;
1747;SDS011;871;47.034;15.394;2022-09-09T05:42:53;38.03;;;3.27;;
1747;SDS011;871;47.034;15.394;2022-09-09T05:45:19;38.00;;;2.90;;
1747;SDS011;871;47.034;15.394;2022-09-09T05:47:45;39.77;;;3.70;;
1747;SDS011;871;47.034;15.394;2022-09-09T05:50:18;41.53;;;3.27;;
1747;SDS011;871;47.034;15.394;2022-09-09T05:52:44;39.80;;;3.33;;
1747;SDS011;871;47.034;15.394;2022-09-09T05:55:10;40.90;;;3.80;;
1747;SDS011;871;47.034;15.394;2022-09-09T05:57:36;41.30;;;3.40;;
1747;SDS011;871;47.034;15.394;2022-09-09T06:00:02;40.47;;;3.90;;
1747;SDS011;871;47.034;15.394;2022-09-09T06:02:28;39.70;;;3.53;;
1747;SDS011;871;47.034;15.394;2022-09-09T06:04:55;42.30;;;4.60;;
1747;SDS011;871;47.034;15.394;2022-09-09T06:07:22;42.33;;;4.10;;
1747;SDS011;871;47.034;15.394;2022-09-09T06:09:48;41.60;;;3.80;;
1747;SDS011;871;47.034;15.394;2022-09-09T06:12:16;40.70;;;4.27;;
1747;SDS011;871;47.034;15.394;2022-09-09T06:14:42;42.90;;;4.30;;
1747;SDS011;871;47.034;15.394;2022-09-09T06:17:09;46.80;;;4.80;;
1747;SDS011;871;47.034;15.394;2022-09-09T06:19:35;43.83;;;4.17;;
1747;SDS011;871;47.034;15.394;2022-09-09T06:22:03;44.23;;;4.17;;
1747;SDS011;871;47.034;15.394;2022-09-09T06:24:29;46.00;;;4.10;;
1747;SDS011;871;47.034;15.394;2022-09-09T06:26:55;44.30;;;4.20;;
1747;SDS011;871;47.034;15.394;2022-09-09T06:29:22;42.93;;;4.00;;
1747;SDS011;871;47.034;15.394;2022-09-09T06:31:49;42.40;;;3.53;;
1747;SDS011;871;47.034;15.394;2022-09-09T06:34:15;45.30;;;3.90;;
1747;SDS011;871;47.034;15.394;2022-09-09T06:36:43;46.73;;;6.30;;
1747;SDS011;871;47.034;15.394;2022-09-09T06:39:10;45.97;;;3.70;;
1747;SDS011;871;47.034;15.394;2022-09-09T06:41:36;40.97;;;4.10;;
1747;SDS011;871;47.034;15.394;2022-09-09T06:44:03;42.60;;;3.50;;
1747;SDS011;871;47.034;15.394;2022-09-09T06:46:30;41.73;;;4.37;;
1747;SDS011;871;47.034;15.394;2022-09-09T06:48:58;41.00;;;4.07;;
1747;SDS011;871;47.034;15.394;2022-09-09T06:51:29;41.40;;;3.60;;
1747;SDS011;871;47.034;15.394;2022-09-09T06:53:56;41.37;;;3.90;;
1747;SDS011;871;47.034;15.394;2022-09-09T06:56:24;44.47;;;3.97;;
1747;SDS011;871;47.034;15.394;2022-09-09T06:58:52;41.10;;;3.90;;
1747;SDS011;871;47.034;15.394;2022-09-09T07:01:25;40.30;;;3.63;;
1747;SDS011;871;47.034;15.394;2022-09-09T07:03:53;41.77;;;4.47;;
1747;SDS011;871;47.034;15.394;2022-09-09T07:06:30;41.37;;;3.80;;
1747;SDS011;871;47.034;15.394;2022-09-09T07:08:57;40.73;;;4.67;;
1747;SDS011;871;47.034;15.394;2022-09-09T07:11:25;40.60;;;4.17;;
1747;SDS011;871;47.034;15.394;2022-09-09T07:13:54;41.80;;;3.93;;
1747;SDS011;871;47.034;15.394;2022-09-09T07:16:22;40.50;;;4.00;;
1747;SDS011;871;47.034;15.394;2022-09-09T07:18:53;41.27;;;4.00;;
1747;SDS011;871;47.034;15.394;2022-09-09T07:21:22;41.67;;;4.00;;
1747;SDS011;871;47.034;15.394;2022-09-09T07:23:49;43.47;;;3.40;;
1747;SDS011;871;47.034;15.394;2022-09-09T07:26:17;41.60;;;4.23;;
1747;SDS011;871;47.034;15.394;2022-09-09T07:28:47;41.57;;;4.27;;
1747;SDS011;871;47.034;15.394;2022-09-09T07:31:14;42.83;;;4.10;;
1747;SDS011;871;47.034;15.394;2022-09-09T07:33:41;42.27;;;4.23;;
1747;SDS011;871;47.034;15.394;2022-09-09T07:36:09;41.23;;;4.27;;
1747;SDS011;871;47.034;15.394;2022-09-09T07:38:37;40.80;;;3.20;;
1747;SDS011;871;47.034;15.394;2022-09-09T07:41:04;41.57;;;4.20;;
1747;SDS011;871;47.034;15.394;2022-09-09T07:43:30;40.80;;;4.00;;
1747;SDS011;871;47.034;15.394;2022-09-09T07:45:58;41.43;;;3.70;;
1747;SDS011;871;47.034;15.394;2022-09-09T07:48:26;40.90;;;3.77;;
1747;SDS011;871;47.034;15.394;2022-09-09T07:50:52;40.77;;;3.07;;
1747;SDS011;871;47.034;15.394;2022-09-09T07:53:18;41.50;;;4.03;;
1747;SDS011;871;47.034;15.394;2022-09-09T07:55:46;40.60;;;3.90;;
1747;SDS011;871;47.034;15.394;2022-09-09T07:58:12;43.10;;;3.93;;
1747;SDS011;871;47.034;15.394;2022-09-09T08:00:38;41.70;;;4.20;;
1747;SDS011;871;47.034;15.394;2022-09-09T08:03:11;41.23;;;3.97;;
1747;SDS011;871;47.034;15.394;2022-09-09T08:05:37;40.90;;;4.33;;
1747;SDS011;871;47.034;15.394;2022-09-09T08:08:04;41.53;;;4.20;;
1747;SDS011;871;47.034;15.394;2022-09-09T08:10:30;43.70;;;4.20;;
1747;SDS011;871;47.034;15.394;2022-09-09T08:12:56;41.20;;;4.10;;
1747;SDS011;871;47.034;15.394;2022-09-09T08:15:22;41.63;;;4.10;;
1747;SDS011;871;47.034;15.394;2022-09-09T08:17:48;44.10;;;4.40;;
1747;SDS011;871;47.034;15.394;2022-09-09T08:20:14;43.20;;;3.93;;
1747;SDS011;871;47.034;15.394;2022-09-09T08:22:40;41.80;;;4.10;;
1747;SDS011;871;47.034;15.394;2022-09-09T08:25:09;44.53;;;4.53;;
1747;SDS011;871;47.034;15.394;2022-09-09T08:27:36;40.80;;;3.50;;
1747;SDS011;871;47.034;15.394;2022-09-09T08:30:02;41.60;;;4.00;;
1747;SDS011;871;47.034;15.394;2022-09-09T08:32:29;41.77;;;3.80;;
1747;SDS011;871;47.034;15.394;2022-09-09T08:34:55;43.63;;;3.70;;
1747;SDS011;871;47.034;15.394;2022-09-09T08:37:22;48.13;;;4.33;;
1747;SDS011;871;47.034;15.394;2022-09-09T08:39:48;43.00;;;4.23;;
1747;SDS011;871;47.034;15.394;2022-09-09T08:48:12;42.37;;;4.50;;
1747;SDS011;871;47.034;15.394;2022-09-09T08:50:30;42.57;;;4.47;;
1747;SDS011;871;47.034;15.394;2022-09-09T08:58:11;42.00;;;4.20;;
1747;SDS011;871;47.034;15.394;2022-09-09T09:00:44;42.43;;;4.00;;
1747;SDS011;871;47.034;15.394;2022-09-09T09:10:49;44.20;;;3.43;;
1747;SDS011;871;47.034;15.394;2022-09-09T09:15:42;40.90;;;3.57;;
1747;SDS011;871;47.034;15.394;2022-09-09T09:18:13;43.50;;;3.60;;
1747;SDS011;871;47.034;15.394;2022-09-09T09:20:50;44.00;;;4.20;;
1747;SDS011;871;47.034;15.394;2022-09-09T09:23:24;49.30;;;3.60;;
1747;SDS011;871;47.034;15.394;2022-09-09T09:25:52;43.33;;;3.90;;
1747;SDS011;871;47.034;15.394;2022-09-09T09:28:27;42.87;;;3.93;;
1747;SDS011;871;47.034;15.394;2022-09-09T09:30:56;42.00;;;3.63;;
1747;SDS011;871;47.034;15.394;2022-09-09T09:33:25;40.30;;;2.77;;
1747;SDS011;871;47.034;15.394;2022-09-09T09:35:54;42.37;;;3.53;;
1747;SDS011;871;47.034;15.394;2022-09-09T09:38:21;41.57;;;3.37;;
1747;SDS011;871;47.034;15.394;2022-09-09T09:40:53;42.20;;;3.60;;
1747;SDS011;871;47.034;15.394;2022-09-09T09:43:29;41.57;;;2.90;;
1747;SDS011;871;47.034;15.394;2022-09-09T09:45:56;42.27;;;3.20;;
1747;SDS011;871;47.034;15.394;2022-09-09T09:48:26;41.20;;;3.50;;
1747;SDS011;871;47.034;15.394;2022-09-09T09:58:21;41.17;;;3.20;;
1747;SDS011;871;47.034;15.394;2022-09-09T10:00:51;41.07;;;3.20;;
1747;SDS011;871;47.034;15.394;2022-09-09T10:03:22;41.53;;;3.20;;
1747;SDS011;871;47.034;15.394;2022-09-09T10:05:48;41.30;;;3.20;;
1747;SDS011;871;47.034;15.394;2022-09-09T10:08:15;40.77;;;2.97;;
1747;SDS011;871;47.034;15.394;2022-09-09T10:11:06;40.70;;;3.07;;
1747;SDS011;871;47.034;15.394;2022-09-09T10:19:02;40.80;;;3.13;;
1747;SDS011;871;47.034;15.394;2022-09-09T10:29:49;43.53;;;3.07;;
1747;SDS011;871;47.034;15.394;2022-09-09T10:42:39;42.30;;;2.40;;
1747;SDS011;871;47.034;15.394;2022-09-09T10:55:53;41.13;;;3.07;;
1747;SDS011;871;47.034;15.394;2022-09-09T10:58:24;40.70;;;2.67;;
1747;SDS011;871;47.034;15.394;2022-09-09T11:00:58;40.00;;;2.37;;
1747;SDS011;871;47.034;15.394;2022-09-09T11:03:28;40.93;;;2.57;;
1747;SDS011;871;47.034;15.394;2022-09-09T11:06:03;41.67;;;3.83;;
1747;SDS011;871;47.034;15.394;2022-09-09T11:08:30;39.87;;;2.37;;
1747;SDS011;871;47.034;15.394;2022-09-09T11:13:34;40.30;;;2.50;;
1747;SDS011;871;47.034;15.394;2022-09-09T11:16:13;40.10;;;2.00;;
1747;SDS011;871;47.034;15.394;2022-09-09T11:18:41;40.10;;;2.10;;
1747;SDS011;871;47.034;15.394;2022-09-09T11:21:12;44.13;;;2.53;;
1747;SDS011;871;47.034;15.394;2022-09-09T11:23:40;41.53;;;2.40;;
1747;SDS011;871;47.034;15.394;2022-09-09T11:26:11;40.67;;;2.67;;
1747;SDS011;871;47.034;15.394;2022-09-09T11:36:27;39.53;;;2.07;;
1747;SDS011;871;47.034;15.394;2022-09-09T11:38:58;39.43;;;2.00;;
1747;SDS011;871;47.034;15.394;2022-09-09T11:41:32;39.50;;;1.77;;
1747;SDS011;871;47.034;15.394;2022-09-09T11:43:59;42.40;;;2.20;;
1747;SDS011;871;47.034;15.394;2022-09-09T11:46:33;39.40;;;1.80;;
1747;SDS011;871;47.034;15.394;2022-09-09T11:49:01;39.60;;;1.97;;
1747;SDS011;871;47.034;15.394;2022-09-09T11:51:28;39.90;;;2.27;;
1747;SDS011;871;47.034;15.394;2022-09-09T11:53:56;40.10;;;1.60;;
1747;SDS011;871;47.034;15.394;2022-09-09T11:56:30;39.60;;;1.80;;
1747;SDS011;871;47.034;15.394;2022-09-09T11:58:58;40.20;;;2.27;;
1747;SDS011;871;47.034;15.394;2022-09-09T12:01:33;39.83;;;2.20;;
1747;SDS011;871;47.034;15.394;2022-09-09T12:06:44;40.60;;;2.20;;
1747;SDS011;871;47.034;15.394;2022-09-09T12:09:18;40.30;;;2.00;;
1747;SDS011;871;47.034;15.394;2022-09-09T12:11:45;40.17;;;2.23;;
1747;SDS011;871;47.034;15.394;2022-09-09T12:16:47;39.63;;;1.77;;
1747;SDS011;871;47.034;15.394;2022-09-09T12:19:14;40.97;;;2.20;;
1747;SDS011;871;47.034;15.394;2022-09-09T12:26:36;39.30;;;1.83;;
1747;SDS011;871;47.034;15.394;2022-09-09T12:31:42;39.50;;;1.87;;
1747;SDS011;871;47.034;15.394;2022-09-09T12:34:11;41.60;;;2.00;;
1747;SDS011;871;47.034;15.394;2022-09-09T12:36:37;39.97;;;1.93;;
1747;SDS011;871;47.034;15.394;2022-09-09T12:39:39;39.53;;;1.80;;
1747;SDS011;871;47.034;15.394;2022-09-09T12:41:57;40.00;;;1.80;;
1747;SDS011;871;47.034;15.394;2022-09-09T12:44:24;39.83;;;1.90;;
1747;SDS011;871;47.034;15.394;2022-09-09T12:46:50;40.30;;;2.13;;
1747;SDS011;871;47.034;15.394;2022-09-09T12:49:23;39.80;;;2.10;;
1747;SDS011;871;47.034;15.394;2022-09-09T12:51:51;39.93;;;2.00;;
1747;SDS011;871;47.034;15.394;2022-09-09T12:54:17;40.20;;;2.30;;
1747;SDS011;871;47.034;15.394;2022-09-09T12:56:45;40.07;;;2.10;;
1747;SDS011;871;47.034;15.394;2022-09-09T12:59:26;39.70;;;2.07;;
1747;SDS011;871;47.034;15.394;2022-09-09T13:01:56;40.00;;;2.10;;
1747;SDS011;871;47.034;15.394;2022-09-09T13:04:22;40.17;;;2.37;;
1747;SDS011;871;47.034;15.394;2022-09-09T13:06:50;39.63;;;2.20;;
1747;SDS011;871;47.034;15.394;2022-09-09T13:09:17;39.93;;;2.27;;
1747;SDS011;871;47.034;15.394;2022-09-09T13:11:50;40.30;;;2.37;;
1747;SDS011;871;47.034;15.394;2022-09-09T13:14:34;40.70;;;2.13;;
1747;SDS011;871;47.034;15.394;2022-09-09T13:17:03;45.00;;;2.27;;
1747;SDS011;871;47.034;15.394;2022-09-09T13:19:35;41.40;;;2.33;;
1747;SDS011;871;47.034;15.394;2022-09-09T13:22:12;40.20;;;2.13;;
1747;SDS011;871;47.034;15.394;2022-09-09T13:24:38;41.20;;;2.10;;
1747;SDS011;871;47.034;15.394;2022-09-09T13:27:05;40.50;;;2.40;;
1747;SDS011;871;47.034;15.394;2022-09-09T13:29:50;41.67;;;2.57;;
1747;SDS011;871;47.034;15.394;2022-09-09T13:32:20;42.10;;;2.20;;
1747;SDS011;871;47.034;15.394;2022-09-09T13:34:57;43.20;;;2.43;;
1747;SDS011;871;47.034;15.394;2022-09-09T13:37:37;40.90;;;2.27;;
1747;SDS011;871;47.034;15.394;2022-09-09T13:40:04;40.40;;;2.63;;
1747;SDS011;871;47.034;15.394;2022-09-09T13:42:35;40.17;;;2.60;;
1747;SDS011;871;47.034;15.394;2022-09-09T13:45:05;39.57;;;1.93;;
1747;SDS011;871;47.034;15.394;2022-09-09T13:47:32;39.67;;;2.63;;
1747;SDS011;871;47.034;15.394;2022-09-09T13:50:19;40.17;;;2.50;;
1747;SDS011;871;47.034;15.394;2022-09-09T13:52:46;40.47;;;2.47;;
1747;SDS011;871;47.034;15.394;2022-09-09T13:55:12;39.90;;;2.30;;
1747;SDS011;871;47.034;15.394;2022-09-09T13:57:38;40.57;;;2.77;;
1747;SDS011;871;47.034;15.394;2022-09-09T14:00:05;40.37;;;2.57;;
1747;SDS011;871;47.034;15.394;2022-09-09T14:02:34;40.40;;;2.53;;
1747;SDS011;871;47.034;15.394;2022-09-09T14:05:01;40.60;;;3.10;;
1747;SDS011;871;47.034;15.394;2022-09-09T14:07:27;40.90;;;2.63;;
1747;SDS011;871;47.034;15.394;2022-09-09T14:09:53;41.03;;;2.87;;
1747;SDS011;871;47.034;15.394;2022-09-09T14:12:20;41.10;;;2.23;;
1747;SDS011;871;47.034;15.394;2022-09-09T14:14:46;40.60;;;2.10;;
1747;SDS011;871;47.034;15.394;2022-09-09T14:17:13;39.67;;;2.30;;
1747;SDS011;871;47.034;15.394;2022-09-09T14:19:39;40.70;;;2.63;;
1747;SDS011;871;47.034;15.394;2022-09-09T14:22:05;40.67;;;3.00;;
1747;SDS011;871;47.034;15.394;2022-09-09T14:24:31;40.80;;;2.77;;
1747;SDS011;871;47.034;15.394;2022-09-09T14:27:00;41.70;;;3.03;;
1747;SDS011;871;47.034;15.394;2022-09-09T14:29:26;41.17;;;3.33;;
1747;SDS011;871;47.034;15.394;2022-09-09T14:31:52;41.67;;;3.20;;
1747;SDS011;871;47.034;15.394;2022-09-09T14:34:18;41.50;;;3.07;;
1747;SDS011;871;47.034;15.394;2022-09-09T14:36:44;43.20;;;2.90;;
1747;SDS011;871;47.034;15.394;2022-09-09T14:39:11;41.53;;;2.50;;
1747;SDS011;871;47.034;15.394;2022-09-09T14:41:37;41.47;;;3.00;;
1747;SDS011;871;47.034;15.394;2022-09-09T14:44:05;40.40;;;3.07;;
1747;SDS011;871;47.034;15.394;2022-09-09T14:46:31;39.83;;;2.40;;
1747;SDS011;871;47.034;15.394;2022-09-09T14:48:58;41.77;;;2.77;;
1747;SDS011;871;47.034;15.394;2022-09-09T14:51:24;41.30;;;2.90;;
1747;SDS011;871;47.034;15.394;2022-09-09T14:53:53;42.50;;;3.00;;
1747;SDS011;871;47.034;15.394;2022-09-09T14:56:21;41.43;;;2.70;;
1747;SDS011;871;47.034;15.394;2022-09-09T14:58:48;40.57;;;2.97;;
1747;SDS011;871;47.034;15.394;2022-09-09T15:01:16;45.00;;;3.60;;
1747;SDS011;871;47.034;15.394;2022-09-09T15:03:43;41.60;;;3.80;;
1747;SDS011;871;47.034;15.394;2022-09-09T15:06:14;41.40;;;3.13;;
1747;SDS011;871;47.034;15.394;2022-09-09T15:08:43;40.30;;;2.60;;
1747;SDS011;871;47.034;15.394;2022-09-09T15:11:10;41.07;;;3.80;;
1747;SDS011;871;47.034;15.394;2022-09-09T15:13:37;41.17;;;3.70;;
1747;SDS011;871;47.034;15.394;2022-09-09T15:16:04;48.20;;;3.47;;
1747;SDS011;871;47.034;15.394;2022-09-09T15:18:30;41.27;;;3.80;;
1747;SDS011;871;47.034;15.394;2022-09-09T15:20:58;40.33;;;3.17;;
1747;SDS011;871;47.034;15.394;2022-09-09T15:23:25;40.27;;;3.13;;
1747;SDS011;871;47.034;15.394;2022-09-09T15:25:54;40.60;;;3.33;;
1747;SDS011;871;47.034;15.394;2022-09-09T15:28:21;40.73;;;2.77;;
1747;SDS011;871;47.034;15.394;2022-09-09T15:30:51;41.40;;;3.40;;
1747;SDS011;871;47.034;15.394;2022-09-09T15:33:17;40.50;;;3.47;;
1747;SDS011;871;47.034;15.394;2022-09-09T15:35:43;40.30;;;3.07;;
1747;SDS011;871;47.034;15.394;2022-09-09T15:38:10;39.70;;;2.60;;
1747;SDS011;871;47.034;15.394;2022-09-09T15:40:38;41.10;;;3.00;;
1747;SDS011;871;47.034;15.394;2022-09-09T15:43:04;40.77;;;2.90;;
1747;SDS011;871;47.034;15.394;2022-09-09T15:45:31;40.40;;;3.23;;
1747;SDS011;871;47.034;15.394;2022-09-09T15:47:58;40.43;;;2.73;;
1747;SDS011;871;47.034;15.394;2022-09-09T15:50:24;42.90;;;2.90;;
1747;SDS011;871;47.034;15.394;2022-09-09T15:52:51;41.23;;;2.67;;
1747;SDS011;871;47.034;15.394;2022-09-09T15:55:18;40.50;;;2.73;;
1747;SDS011;871;47.034;15.394;2022-09-09T15:57:50;41.27;;;2.43;;
1747;SDS011;871;47.034;15.394;2022-09-09T16:00:18;42.23;;;2.70;;
1747;SDS011;871;47.034;15.394;2022-09-09T16:02:46;39.90;;;2.60;;
1747;SDS011;871;47.034;15.394;2022-09-09T16:05:15;39.97;;;2.20;;
1747;SDS011;871;47.034;15.394;2022-09-09T16:07:42;40.63;;;2.90;;
1747;SDS011;871;47.034;15.394;2022-09-09T16:10:09;39.90;;;2.20;;
1747;SDS011;871;47.034;15.394;2022-09-09T16:12:36;40.27;;;3.00;;
1747;SDS011;871;47.034;15.394;2022-09-09T16:15:05;43.20;;;2.63;;
1747;SDS011;871;47.034;15.394;2022-09-09T16:17:32;39.47;;;2.03;;
1747;SDS011;871;47.034;15.394;2022-09-09T16:20:02;39.77;;;2.30;;
1747;SDS011;871;47.034;15.394;2022-09-09T16:22:31;41.20;;;2.20;;
1747;SDS011;871;47.034;15.394;2022-09-09T16:24:57;40.17;;;2.83;;
1747;SDS011;871;47.034;15.394;2022-09-09T16:27:25;46.43;;;3.40;;
1747;SDS011;871;47.034;15.394;2022-09-09T16:29:51;40.50;;;3.03;;
1747;SDS011;871;47.034;15.394;2022-09-09T16:32:18;40.80;;;2.80;;
1747;SDS011;871;47.034;15.394;2022-09-09T16:34:45;40.27;;;2.90;;
1747;SDS011;871;47.034;15.394;2022-09-09T16:37:11;41.27;;;2.77;;
1747;SDS011;871;47.034;15.394;2022-09-09T16:39:38;41.60;;;2.40;;
1747;SDS011;871;47.034;15.394;2022-09-09T16:42:04;40.40;;;2.50;;
1747;SDS011;871;47.034;15.394;2022-09-09T16:44:32;40.10;;;2.70;;
1747;SDS011;871;47.034;15.394;2022-09-09T16:46:58;40.33;;;2.80;;
1747;SDS011;871;47.034;15.394;2022-09-09T16:49:25;39.77;;;2.47;;
1747;SDS011;871;47.034;15.394;2022-09-09T16:51:52;40.40;;;2.70;;
1747;SDS011;871;47.034;15.394;2022-09-09T16:54:19;39.73;;;2.83;;
1747;SDS011;871;47.034;15.394;2022-09-09T16:56:48;41.20;;;3.40;;
1747;SDS011;871;47.034;15.394;2022-09-09T16:59:15;49.13;;;3.83;;
1747;SDS011;871;47.034;15.394;2022-09-09T17:01:42;41.30;;;3.23;;
1747;SDS011;871;47.034;15.394;2022-09-09T17:04:10;45.10;;;2.73;;
1747;SDS011;871;47.034;15.394;2022-09-09T17:06:38;39.87;;;2.70;;
1747;SDS011;871;47.034;15.394;2022-09-09T17:09:05;41.27;;;2.80;;
1747;SDS011;871;47.034;15.394;2022-09-09T17:11:32;41.10;;;3.20;;
1747;SDS011;871;47.034;15.394;2022-09-09T17:13:58;40.17;;;2.60;;
1747;SDS011;871;47.034;15.394;2022-09-09T17:16:26;40.40;;;2.33;;
1747;SDS011;871;47.034;15.394;2022-09-09T17:18:52;40.67;;;2.63;;
1747;SDS011;871;47.034;15.394;2022-09-09T17:21:20;38.97;;;1.90;;
1747;SDS011;871;47.034;15.394;2022-09-09T17:23:47;40.30;;;2.80;;